Minneapolis, MN (55473)

9:33 PM CDT on April 26, 2017 (GMT -0500)
Deltaville U.S.A. | | Change Station

Elev 1004 ft 44.73 °N, 93.97 °W | Updated 3 seconds ago

Overcast
Overcast
34.9 °F
Feels Like 29 °F
N
6.5
Wind Variable Wind from North
Gusts 9.8 mph

Today
High -- | Low -- °F
--% Chance of Precip.
Yesterday
High -- | Low -- °F
Precip. -- in
Pressure 29.62 in
Visibility 10.0 miles
Clouds Overcast 900 ft
Windchill 29 °F
Dew Point 34 °F
Humidity 98%
Rainfall 0.25 in
Snow Depth Not available.
6:12 AM 8:14 PM
New Moon, 1% visible
METAR KGYL 270216Z AUTO 30007KT 10SM OVC009 02/01 A2962 RMK AO2 T00170010
Pressure 29.62 in
Visibility 10.0 miles
Clouds Overcast 900 ft
Windchill 29 °F
Dew Point 34 °F
Humidity 98%
Rainfall 0.25 in
Snow Depth Not available.
6:12 AM 8:14 PM
New Moon, 1% visible
METAR KGYL 270216Z AUTO 30007KT 10SM OVC009 02/01 A2962 RMK AO2 T00170010

Get Severe Weather Alerts

Thanks for signing up!

Be on the lookout for a verification email in your inbox.

You'll start receiving the daily forecast at 8 AM.

×

10-Day Weather Forecast

Almanac

Astronomy

Apr. 26, 2017 Rise Set
Actual Time
Civil Twilight
Nautical Twilight
Astronomical Twilight
Moon
Length of Visible Light
Length of Day
Tomorrow will be .
, % of the Moon is Illuminated

Today's Extremes

State Highs State Lows

Community

WunderPhotos

WunderBlog® & News

Nearby

Air Quality

  Air Quality AQ Index Pollutant
Not available.

Snow Depth

Station Depth Elevation

Earthquake Activity

City Distance Mag. Time & Date
Minimum magnitude displayed is 2.5.

Coastal Water Temperatures

Place Temperature

Stations

Nearby Weather Stations

Station Location Temp. Windchill Dew Point Humidity Wind Precip. Elev Updated Type
                   

Watches & Warnings

There are currently no watches in effect.